sensor_id;sensor_type;location;lat;lon;timestamp;temperature;humidity
5924;DHT22;2987;50.884;14.818;2022-07-06T00:00:11;14.30;99.90
5924;DHT22;2987;50.884;14.818;2022-07-06T00:02:37;14.30;99.90
5924;DHT22;2987;50.884;14.818;2022-07-06T00:05:03;14.40;99.90
5924;DHT22;2987;50.884;14.818;2022-07-06T00:07:30;14.40;99.90
5924;DHT22;2987;50.884;14.818;2022-07-06T00:09:56;14.50;99.90
5924;DHT22;2987;50.884;14.818;2022-07-06T00:12:24;14.50;99.90
5924;DHT22;2987;50.884;14.818;2022-07-06T00:14:50;14.50;99.90
5924;DHT22;2987;50.884;14.818;2022-07-06T00:17:16;14.50;99.90
5924;DHT22;2987;50.884;14.818;2022-07-06T00:19:45;14.50;99.90
5924;DHT22;2987;50.884;14.818;2022-07-06T00:22:11;14.50;99.90
5924;DHT22;2987;50.884;14.818;2022-07-06T00:24:37;14.50;99.90
5924;DHT22;2987;50.884;14.818;2022-07-06T00:27:04;14.60;99.90
5924;DHT22;2987;50.884;14.818;2022-07-06T00:29:35;14.60;99.90
5924;DHT22;2987;50.884;14.818;2022-07-06T00:32:01;14.70;99.90
5924;DHT22;2987;50.884;14.818;2022-07-06T00:34:27;14.90;99.90
5924;DHT22;2987;50.884;14.818;2022-07-06T00:37:00;15.20;99.90
5924;DHT22;2987;50.884;14.818;2022-07-06T00:39:30;15.60;99.90
5924;DHT22;2987;50.884;14.818;2022-07-06T00:41:57;16.00;99.90
5924;DHT22;2987;50.884;14.818;2022-07-06T00:44:23;16.10;99.90
5924;DHT22;2987;50.884;14.818;2022-07-06T00:46:50;16.20;99.90
5924;DHT22;2987;50.884;14.818;2022-07-06T00:49:17;16.30;99.90
5924;DHT22;2987;50.884;14.818;2022-07-06T00:52:03;16.20;99.90
5924;DHT22;2987;50.884;14.818;2022-07-06T00:54:31;16.00;99.90
5924;DHT22;2987;50.884;14.818;2022-07-06T00:57:23;15.80;99.90
5924;DHT22;2987;50.884;14.818;2022-07-06T00:59:49;15.60;99.90
5924;DHT22;2987;50.884;14.818;2022-07-06T01:02:16;15.50;99.90
5924;DHT22;2987;50.884;14.818;2022-07-06T01:04:42;15.30;99.90
5924;DHT22;2987;50.884;14.818;2022-07-06T01:07:08;15.20;99.90
5924;DHT22;2987;50.884;14.818;2022-07-06T01:09:34;15.10;99.90
5924;DHT22;2987;50.884;14.818;2022-07-06T01:12:04;15.00;99.90
5924;DHT22;2987;50.884;14.818;2022-07-06T01:14:32;14.90;99.90
5924;DHT22;2987;50.884;14.818;2022-07-06T01:16:59;14.80;99.90
5924;DHT22;2987;50.884;14.818;2022-07-06T01:19:25;14.80;99.90
5924;DHT22;2987;50.884;14.818;2022-07-06T01:21:51;14.80;99.90
5924;DHT22;2987;50.884;14.818;2022-07-06T01:24:18;14.70;99.90
5924;DHT22;2987;50.884;14.818;2022-07-06T01:26:44;14.70;99.90
5924;DHT22;2987;50.884;14.818;2022-07-06T01:29:10;14.70;99.90
5924;DHT22;2987;50.884;14.818;2022-07-06T01:31:46;14.70;99.90
5924;DHT22;2987;50.884;14.818;2022-07-06T01:34:16;14.70;99.90
5924;DHT22;2987;50.884;14.818;2022-07-06T01:36:43;14.60;99.90
5924;DHT22;2987;50.884;14.818;2022-07-06T01:39:11;14.70;99.90
5924;DHT22;2987;50.884;14.818;2022-07-06T01:41:37;14.60;99.90
5924;DHT22;2987;50.884;14.818;2022-07-06T01:44:05;14.70;99.90
5924;DHT22;2987;50.884;14.818;2022-07-06T01:46:32;14.60;99.90
5924;DHT22;2987;50.884;14.818;2022-07-06T01:48:58;14.60;99.90
5924;DHT22;2987;50.884;14.818;2022-07-06T01:51:25;14.50;99.90
5924;DHT22;2987;50.884;14.818;2022-07-06T01:53:54;14.60;99.90
5924;DHT22;2987;50.884;14.818;2022-07-06T01:56:21;14.50;99.90
5924;DHT22;2987;50.884;14.818;2022-07-06T01:58:52;14.50;99.90
5924;DHT22;2987;50.884;14.818;2022-07-06T02:01:20;14.50;99.90
5924;DHT22;2987;50.884;14.818;2022-07-06T02:03:47;14.50;99.90
5924;DHT22;2987;50.884;14.818;2022-07-06T02:06:14;14.50;99.90
5924;DHT22;2987;50.884;14.818;2022-07-06T02:08:41;14.40;99.90
5924;DHT22;2987;50.884;14.818;2022-07-06T02:11:09;14.50;99.90
5924;DHT22;2987;50.884;14.818;2022-07-06T02:13:38;14.40;99.90
5924;DHT22;2987;50.884;14.818;2022-07-06T02:16:09;14.40;99.90
5924;DHT22;2987;50.884;14.818;2022-07-06T02:18:36;14.50;99.90
5924;DHT22;2987;50.884;14.818;2022-07-06T02:21:09;14.50;99.90
5924;DHT22;2987;50.884;14.818;2022-07-06T02:23:35;14.50;99.90
5924;DHT22;2987;50.884;14.818;2022-07-06T02:26:02;14.50;99.90
5924;DHT22;2987;50.884;14.818;2022-07-06T02:28:30;14.40;99.90
5924;DHT22;2987;50.884;14.818;2022-07-06T02:30:58;14.40;99.90
5924;DHT22;2987;50.884;14.818;2022-07-06T02:33:26;14.40;99.90
5924;DHT22;2987;50.884;14.818;2022-07-06T02:35:53;14.50;99.90
5924;DHT22;2987;50.884;14.818;2022-07-06T02:38:21;14.50;99.90
5924;DHT22;2987;50.884;14.818;2022-07-06T02:40:47;14.40;99.90
5924;DHT22;2987;50.884;14.818;2022-07-06T02:43:15;14.40;99.90
5924;DHT22;2987;50.884;14.818;2022-07-06T02:45:41;14.40;99.90
5924;DHT22;2987;50.884;14.818;2022-07-06T02:48:09;14.40;99.90
5924;DHT22;2987;50.884;14.818;2022-07-06T02:50:35;14.40;99.90
5924;DHT22;2987;50.884;14.818;2022-07-06T02:53:02;14.40;99.90
5924;DHT22;2987;50.884;14.818;2022-07-06T02:55:29;14.40;99.90
5924;DHT22;2987;50.884;14.818;2022-07-06T02:57:56;14.40;99.90
5924;DHT22;2987;50.884;14.818;2022-07-06T03:00:23;14.40;99.90
5924;DHT22;2987;50.884;14.818;2022-07-06T03:02:50;14.40;99.90
5924;DHT22;2987;50.884;14.818;2022-07-06T03:05:20;14.40;99.90
5924;DHT22;2987;50.884;14.818;2022-07-06T03:07:46;14.40;99.90
5924;DHT22;2987;50.884;14.818;2022-07-06T03:10:13;14.40;99.90
5924;DHT22;2987;50.884;14.818;2022-07-06T03:12:40;14.40;99.90
5924;DHT22;2987;50.884;14.818;2022-07-06T03:15:07;14.40;99.90
5924;DHT22;2987;50.884;14.818;2022-07-06T03:17:37;14.40;99.90
5924;DHT22;2987;50.884;14.818;2022-07-06T03:20:05;14.40;99.90
5924;DHT22;2987;50.884;14.818;2022-07-06T03:22:32;14.40;99.90
5924;DHT22;2987;50.884;14.818;2022-07-06T03:25:00;14.30;99.90
5924;DHT22;2987;50.884;14.818;2022-07-06T03:27:26;14.30;99.90
5924;DHT22;2987;50.884;14.818;2022-07-06T03:29:52;14.30;99.90
5924;DHT22;2987;50.884;14.818;2022-07-06T03:32:20;14.30;99.90
5924;DHT22;2987;50.884;14.818;2022-07-06T03:34:47;14.30;99.90
5924;DHT22;2987;50.884;14.818;2022-07-06T03:37:13;14.30;99.90
5924;DHT22;2987;50.884;14.818;2022-07-06T03:39:41;14.30;99.90
5924;DHT22;2987;50.884;14.818;2022-07-06T03:42:08;14.30;99.90
5924;DHT22;2987;50.884;14.818;2022-07-06T03:44:36;14.40;99.90
5924;DHT22;2987;50.884;14.818;2022-07-06T03:47:03;14.40;99.90
5924;DHT22;2987;50.884;14.818;2022-07-06T03:49:29;14.40;99.90
5924;DHT22;2987;50.884;14.818;2022-07-06T03:51:58;14.40;99.90
5924;DHT22;2987;50.884;14.818;2022-07-06T03:54:26;14.40;99.90
5924;DHT22;2987;50.884;14.818;2022-07-06T03:56:56;14.40;99.90
5924;DHT22;2987;50.884;14.818;2022-07-06T03:59:23;14.40;99.90
5924;DHT22;2987;50.884;14.818;2022-07-06T04:01:49;14.50;99.90
5924;DHT22;2987;50.884;14.818;2022-07-06T04:04:17;14.60;99.90
5924;DHT22;2987;50.884;14.818;2022-07-06T04:06:46;14.60;99.90
5924;DHT22;2987;50.884;14.818;2022-07-06T04:09:13;14.60;99.90
5924;DHT22;2987;50.884;14.818;2022-07-06T04:11:41;14.70;99.90
5924;DHT22;2987;50.884;14.818;2022-07-06T04:14:08;14.80;99.90
5924;DHT22;2987;50.884;14.818;2022-07-06T04:16:34;14.80;99.90
5924;DHT22;2987;50.884;14.818;2022-07-06T04:19:00;14.90;99.90
5924;DHT22;2987;50.884;14.818;2022-07-06T04:21:27;14.90;99.90
5924;DHT22;2987;50.884;14.818;2022-07-06T04:23:53;14.90;99.90
5924;DHT22;2987;50.884;14.818;2022-07-06T04:26:19;14.90;99.90
5924;DHT22;2987;50.884;14.818;2022-07-06T04:28:46;15.00;99.90
5924;DHT22;2987;50.884;14.818;2022-07-06T04:31:12;15.40;99.90
5924;DHT22;2987;50.884;14.818;2022-07-06T04:33:43;15.90;99.90
5924;DHT22;2987;50.884;14.818;2022-07-06T04:36:10;16.00;99.90
5924;DHT22;2987;50.884;14.818;2022-07-06T04:38:41;16.10;99.90
5924;DHT22;2987;50.884;14.818;2022-07-06T04:41:15;16.00;99.90
5924;DHT22;2987;50.884;14.818;2022-07-06T04:43:41;16.00;99.90
5924;DHT22;2987;50.884;14.818;2022-07-06T04:46:12;15.80;99.90
5924;DHT22;2987;50.884;14.818;2022-07-06T04:48:41;15.70;99.90
5924;DHT22;2987;50.884;14.818;2022-07-06T04:51:12;15.70;99.90
5924;DHT22;2987;50.884;14.818;2022-07-06T04:53:40;15.70;99.90
5924;DHT22;2987;50.884;14.818;2022-07-06T04:56:06;15.60;99.90
5924;DHT22;2987;50.884;14.818;2022-07-06T04:58:35;15.60;99.90
5924;DHT22;2987;50.884;14.818;2022-07-06T05:01:02;15.50;99.90
5924;DHT22;2987;50.884;14.818;2022-07-06T05:03:28;15.50;99.90
5924;DHT22;2987;50.884;14.818;2022-07-06T05:05:55;15.50;99.90
5924;DHT22;2987;50.884;14.818;2022-07-06T05:08:22;15.60;99.90
5924;DHT22;2987;50.884;14.818;2022-07-06T05:10:52;15.60;99.90
5924;DHT22;2987;50.884;14.818;2022-07-06T05:13:19;15.70;99.90
5924;DHT22;2987;50.884;14.818;2022-07-06T05:15:45;15.80;99.90
5924;DHT22;2987;50.884;14.818;2022-07-06T05:18:12;15.80;99.90
5924;DHT22;2987;50.884;14.818;2022-07-06T05:20:41;15.90;99.90
5924;DHT22;2987;50.884;14.818;2022-07-06T05:23:07;16.00;99.90
5924;DHT22;2987;50.884;14.818;2022-07-06T05:25:33;16.00;99.90
5924;DHT22;2987;50.884;14.818;2022-07-06T05:28:01;16.00;99.90
5924;DHT22;2987;50.884;14.818;2022-07-06T05:30:28;15.90;99.90
5924;DHT22;2987;50.884;14.818;2022-07-06T05:32:55;16.00;99.90
5924;DHT22;2987;50.884;14.818;2022-07-06T05:35:21;16.00;99.90
5924;DHT22;2987;50.884;14.818;2022-07-06T05:37:47;15.90;99.90
5924;DHT22;2987;50.884;14.818;2022-07-06T05:40:19;15.90;99.90
5924;DHT22;2987;50.884;14.818;2022-07-06T05:42:45;16.00;99.90
5924;DHT22;2987;50.884;14.818;2022-07-06T05:45:12;16.20;99.90
5924;DHT22;2987;50.884;14.818;2022-07-06T05:47:39;16.40;99.90
5924;DHT22;2987;50.884;14.818;2022-07-06T05:50:25;16.70;99.90
5924;DHT22;2987;50.884;14.818;2022-07-06T05:52:59;16.80;99.90
5924;DHT22;2987;50.884;14.818;2022-07-06T05:55:28;16.70;99.90
5924;DHT22;2987;50.884;14.818;2022-07-06T05:57:56;16.70;99.90
5924;DHT22;2987;50.884;14.818;2022-07-06T06:00:25;16.70;99.90
5924;DHT22;2987;50.884;14.818;2022-07-06T06:03:04;16.60;99.90
5924;DHT22;2987;50.884;14.818;2022-07-06T06:05:31;16.60;99.90
5924;DHT22;2987;50.884;14.818;2022-07-06T06:08:03;16.70;99.90
5924;DHT22;2987;50.884;14.818;2022-07-06T06:10:29;16.70;99.90
5924;DHT22;2987;50.884;14.818;2022-07-06T06:12:59;16.80;99.90
5924;DHT22;2987;50.884;14.818;2022-07-06T06:15:26;17.00;99.90
5924;DHT22;2987;50.884;14.818;2022-07-06T06:17:53;17.20;99.90
5924;DHT22;2987;50.884;14.818;2022-07-06T06:20:19;17.40;99.90
5924;DHT22;2987;50.884;14.818;2022-07-06T06:22:54;17.60;99.90
5924;DHT22;2987;50.884;14.818;2022-07-06T06:25:32;18.00;99.90
5924;DHT22;2987;50.884;14.818;2022-07-06T06:27:59;18.50;99.90
5924;DHT22;2987;50.884;14.818;2022-07-06T06:30:26;18.90;99.90
5924;DHT22;2987;50.884;14.818;2022-07-06T06:33:18;19.20;99.90
5924;DHT22;2987;50.884;14.818;2022-07-06T06:35:47;19.60;99.90
5924;DHT22;2987;50.884;14.818;2022-07-06T06:38:15;19.90;99.90
5924;DHT22;2987;50.884;14.818;2022-07-06T06:40:42;20.20;99.90
5924;DHT22;2987;50.884;14.818;2022-07-06T06:43:08;20.50;99.90
5924;DHT22;2987;50.884;14.818;2022-07-06T06:45:43;20.80;99.90
5924;DHT22;2987;50.884;14.818;2022-07-06T06:48:10;21.00;99.90
5924;DHT22;2987;50.884;14.818;2022-07-06T06:50:36;20.90;99.90
5924;DHT22;2987;50.884;14.818;2022-07-06T06:53:02;21.10;99.90
5924;DHT22;2987;50.884;14.818;2022-07-06T06:55:28;21.40;99.90
5924;DHT22;2987;50.884;14.818;2022-07-06T06:57:55;21.40;99.90
5924;DHT22;2987;50.884;14.818;2022-07-06T07:00:21;21.40;99.90
5924;DHT22;2987;50.884;14.818;2022-07-06T07:02:47;21.60;99.90
5924;DHT22;2987;50.884;14.818;2022-07-06T07:05:13;21.40;99.90
5924;DHT22;2987;50.884;14.818;2022-07-06T07:07:39;21.60;99.90
5924;DHT22;2987;50.884;14.818;2022-07-06T07:10:06;21.70;99.90
5924;DHT22;2987;50.884;14.818;2022-07-06T07:12:43;21.90;99.90
5924;DHT22;2987;50.884;14.818;2022-07-06T07:15:10;22.10;99.90
5924;DHT22;2987;50.884;14.818;2022-07-06T07:17:36;22.20;99.90
5924;DHT22;2987;50.884;14.818;2022-07-06T07:20:03;22.00;99.90
5924;DHT22;2987;50.884;14.818;2022-07-06T07:22:29;21.60;99.90
5924;DHT22;2987;50.884;14.818;2022-07-06T07:24:55;21.50;99.90
5924;DHT22;2987;50.884;14.818;2022-07-06T07:27:21;21.40;99.90
5924;DHT22;2987;50.884;14.818;2022-07-06T07:29:47;21.30;99.90
5924;DHT22;2987;50.884;14.818;2022-07-06T07:32:13;21.20;99.90
5924;DHT22;2987;50.884;14.818;2022-07-06T07:34:40;21.20;99.90
5924;DHT22;2987;50.884;14.818;2022-07-06T07:37:06;21.50;99.90
5924;DHT22;2987;50.884;14.818;2022-07-06T07:39:32;21.50;99.90
5924;DHT22;2987;50.884;14.818;2022-07-06T07:41:59;21.50;99.90
5924;DHT22;2987;50.884;14.818;2022-07-06T07:44:25;21.40;99.90
5924;DHT22;2987;50.884;14.818;2022-07-06T07:46:53;21.60;99.90
5924;DHT22;2987;50.884;14.818;2022-07-06T07:49:19;21.80;99.90
5924;DHT22;2987;50.884;14.818;2022-07-06T07:51:48;21.80;99.90
5924;DHT22;2987;50.884;14.818;2022-07-06T07:54:15;22.00;99.90
5924;DHT22;2987;50.884;14.818;2022-07-06T07:56:41;22.30;99.90
5924;DHT22;2987;50.884;14.818;2022-07-06T07:59:08;22.50;99.90
5924;DHT22;2987;50.884;14.818;2022-07-06T08:01:37;22.50;99.90
5924;DHT22;2987;50.884;14.818;2022-07-06T08:04:03;22.20;99.90
5924;DHT22;2987;50.884;14.818;2022-07-06T08:06:29;22.20;99.90
5924;DHT22;2987;50.884;14.818;2022-07-06T08:08:59;22.20;99.90
5924;DHT22;2987;50.884;14.818;2022-07-06T08:11:25;22.30;99.90
5924;DHT22;2987;50.884;14.818;2022-07-06T08:13:52;22.10;99.90
5924;DHT22;2987;50.884;14.818;2022-07-06T08:16:18;22.00;99.90
5924;DHT22;2987;50.884;14.818;2022-07-06T08:18:44;22.00;99.90
5924;DHT22;2987;50.884;14.818;2022-07-06T08:21:11;22.20;99.90
5924;DHT22;2987;50.884;14.818;2022-07-06T08:23:37;21.90;99.90
5924;DHT22;2987;50.884;14.818;2022-07-06T08:26:11;21.60;99.90
5924;DHT22;2987;50.884;14.818;2022-07-06T08:28:38;21.50;99.90
5924;DHT22;2987;50.884;14.818;2022-07-06T08:31:03;21.10;99.90
5924;DHT22;2987;50.884;14.818;2022-07-06T08:33:30;20.80;99.90
5924;DHT22;2987;50.884;14.818;2022-07-06T08:35:57;20.70;99.90
5924;DHT22;2987;50.884;14.818;2022-07-06T08:38:23;20.50;99.90
5924;DHT22;2987;50.884;14.818;2022-07-06T08:40:50;20.50;99.90
5924;DHT22;2987;50.884;14.818;2022-07-06T08:43:17;20.60;99.90
5924;DHT22;2987;50.884;14.818;2022-07-06T08:45:45;20.40;99.90
5924;DHT22;2987;50.884;14.818;2022-07-06T08:48:12;20.40;99.90
5924;DHT22;2987;50.884;14.818;2022-07-06T08:50:39;20.70;99.90
5924;DHT22;2987;50.884;14.818;2022-07-06T08:53:05;20.90;99.90
5924;DHT22;2987;50.884;14.818;2022-07-06T08:55:32;21.00;99.90
5924;DHT22;2987;50.884;14.818;2022-07-06T08:57:59;20.80;99.90
5924;DHT22;2987;50.884;14.818;2022-07-06T09:00:26;20.70;99.90
5924;DHT22;2987;50.884;14.818;2022-07-06T09:02:52;20.60;99.90
5924;DHT22;2987;50.884;14.818;2022-07-06T09:05:24;20.70;99.90
5924;DHT22;2987;50.884;14.818;2022-07-06T09:07:52;21.00;99.90
5924;DHT22;2987;50.884;14.818;2022-07-06T09:10:20;21.20;99.90
5924;DHT22;2987;50.884;14.818;2022-07-06T09:12:48;21.40;99.90
5924;DHT22;2987;50.884;14.818;2022-07-06T09:15:15;21.30;99.90
5924;DHT22;2987;50.884;14.818;2022-07-06T09:17:42;21.10;99.90
5924;DHT22;2987;50.884;14.818;2022-07-06T09:20:10;21.00;99.90
5924;DHT22;2987;50.884;14.818;2022-07-06T09:22:38;21.20;99.90
5924;DHT22;2987;50.884;14.818;2022-07-06T09:25:05;21.40;99.90
5924;DHT22;2987;50.884;14.818;2022-07-06T09:27:36;21.70;99.90
5924;DHT22;2987;50.884;14.818;2022-07-06T09:30:03;22.00;99.90
5924;DHT22;2987;50.884;14.818;2022-07-06T09:32:31;22.30;99.90
5924;DHT22;2987;50.884;14.818;2022-07-06T09:35:04;22.60;99.90
5924;DHT22;2987;50.884;14.818;2022-07-06T09:37:30;22.70;99.90
5924;DHT22;2987;50.884;14.818;2022-07-06T09:39:56;22.80;99.90
5924;DHT22;2987;50.884;14.818;2022-07-06T09:42:26;23.00;99.90
5924;DHT22;2987;50.884;14.818;2022-07-06T09:44:53;23.00;99.90
5924;DHT22;2987;50.884;14.818;2022-07-06T09:47:20;23.30;99.90
5924;DHT22;2987;50.884;14.818;2022-07-06T09:49:46;23.80;99.90
5924;DHT22;2987;50.884;14.818;2022-07-06T09:52:14;23.80;99.90
5924;DHT22;2987;50.884;14.818;2022-07-06T09:54:40;24.00;99.90
5924;DHT22;2987;50.884;14.818;2022-07-06T09:57:07;23.90;99.90
5924;DHT22;2987;50.884;14.818;2022-07-06T09:59:34;24.20;99.90
5924;DHT22;2987;50.884;14.818;2022-07-06T10:02:03;24.00;99.90
5924;DHT22;2987;50.884;14.818;2022-07-06T10:04:31;23.40;99.90
5924;DHT22;2987;50.884;14.818;2022-07-06T10:06:58;22.70;99.90
5924;DHT22;2987;50.884;14.818;2022-07-06T10:09:26;22.40;99.90
5924;DHT22;2987;50.884;14.818;2022-07-06T10:11:58;22.20;99.90
5924;DHT22;2987;50.884;14.818;2022-07-06T10:14:27;22.10;99.90
5924;DHT22;2987;50.884;14.818;2022-07-06T10:16:56;22.30;99.90
5924;DHT22;2987;50.884;14.818;2022-07-06T10:19:24;22.80;99.90
5924;DHT22;2987;50.884;14.818;2022-07-06T10:21:51;23.30;99.90
5924;DHT22;2987;50.884;14.818;2022-07-06T10:24:19;23.20;99.90
5924;DHT22;2987;50.884;14.818;2022-07-06T10:26:46;23.00;99.90
5924;DHT22;2987;50.884;14.818;2022-07-06T10:29:13;22.70;99.90
5924;DHT22;2987;50.884;14.818;2022-07-06T10:31:43;22.30;99.90
5924;DHT22;2987;50.884;14.818;2022-07-06T10:34:12;22.30;99.90
5924;DHT22;2987;50.884;14.818;2022-07-06T10:36:42;22.50;99.90
5924;DHT22;2987;50.884;14.818;2022-07-06T10:39:09;22.30;99.90
5924;DHT22;2987;50.884;14.818;2022-07-06T10:42:01;22.50;99.90
5924;DHT22;2987;50.884;14.818;2022-07-06T10:44:29;23.10;99.90
5924;DHT22;2987;50.884;14.818;2022-07-06T10:46:58;23.40;99.90
5924;DHT22;2987;50.884;14.818;2022-07-06T10:49:26;23.80;99.90
5924;DHT22;2987;50.884;14.818;2022-07-06T10:51:56;23.90;99.90
5924;DHT22;2987;50.884;14.818;2022-07-06T10:54:23;23.90;99.90
5924;DHT22;2987;50.884;14.818;2022-07-06T10:56:50;23.50;99.90
5924;DHT22;2987;50.884;14.818;2022-07-06T10:59:19;23.70;99.90
5924;DHT22;2987;50.884;14.818;2022-07-06T11:02:13;23.80;99.90
5924;DHT22;2987;50.884;14.818;2022-07-06T11:07:12;23.10;99.90
5924;DHT22;2987;50.884;14.818;2022-07-06T11:09:39;23.10;99.90
5924;DHT22;2987;50.884;14.818;2022-07-06T11:12:24;23.40;99.90
5924;DHT22;2987;50.884;14.818;2022-07-06T11:14:51;23.70;99.90
5924;DHT22;2987;50.884;14.818;2022-07-06T11:17:19;23.70;99.90
5924;DHT22;2987;50.884;14.818;2022-07-06T11:20:09;23.80;99.90
5924;DHT22;2987;50.884;14.818;2022-07-06T11:22:37;23.50;99.90
5924;DHT22;2987;50.884;14.818;2022-07-06T11:25:04;23.70;99.90
5924;DHT22;2987;50.884;14.818;2022-07-06T11:27:31;23.70;99.90
5924;DHT22;2987;50.884;14.818;2022-07-06T11:29:58;23.80;99.90
5924;DHT22;2987;50.884;14.818;2022-07-06T11:32:26;23.60;99.30
5924;DHT22;2987;50.884;14.818;2022-07-06T11:34:52;23.20;99.90
5924;DHT22;2987;50.884;14.818;2022-07-06T11:37:18;23.10;99.90
5924;DHT22;2987;50.884;14.818;2022-07-06T11:39:47;23.30;99.90
5924;DHT22;2987;50.884;14.818;2022-07-06T11:42:21;23.50;99.90
5924;DHT22;2987;50.884;14.818;2022-07-06T11:44:47;23.70;99.90
5924;DHT22;2987;50.884;14.818;2022-07-06T11:47:16;23.90;99.90
5924;DHT22;2987;50.884;14.818;2022-07-06T11:49:42;23.90;98.00
5924;DHT22;2987;50.884;14.818;2022-07-06T11:52:13;24.10;98.70
5924;DHT22;2987;50.884;14.818;2022-07-06T11:54:41;24.20;98.50
5924;DHT22;2987;50.884;14.818;2022-07-06T11:57:08;24.20;98.50
5924;DHT22;2987;50.884;14.818;2022-07-06T11:59:38;24.20;99.10
5924;DHT22;2987;50.884;14.818;2022-07-06T12:02:08;24.00;98.70
5924;DHT22;2987;50.884;14.818;2022-07-06T12:04:38;23.50;99.70
5924;DHT22;2987;50.884;14.818;2022-07-06T12:07:08;23.20;98.80
5924;DHT22;2987;50.884;14.818;2022-07-06T12:09:36;22.80;99.70
5924;DHT22;2987;50.884;14.818;2022-07-06T12:12:03;22.70;99.80
5924;DHT22;2987;50.884;14.818;2022-07-06T12:14:33;22.60;99.60
5924;DHT22;2987;50.884;14.818;2022-07-06T12:17:10;22.50;98.90
5924;DHT22;2987;50.884;14.818;2022-07-06T12:19:38;22.70;99.90
5924;DHT22;2987;50.884;14.818;2022-07-06T12:22:05;23.20;98.90
5924;DHT22;2987;50.884;14.818;2022-07-06T12:24:32;23.70;99.10
5924;DHT22;2987;50.884;14.818;2022-07-06T12:27:19;24.00;98.30
5924;DHT22;2987;50.884;14.818;2022-07-06T12:29:48;24.00;99.00
5924;DHT22;2987;50.884;14.818;2022-07-06T12:32:20;23.90;97.90
5924;DHT22;2987;50.884;14.818;2022-07-06T12:37:33;23.90;97.70
5924;DHT22;2987;50.884;14.818;2022-07-06T12:40:00;24.00;96.20
5924;DHT22;2987;50.884;14.818;2022-07-06T12:42:26;24.10;97.70
5924;DHT22;2987;50.884;14.818;2022-07-06T12:44:54;24.40;98.90
5924;DHT22;2987;50.884;14.818;2022-07-06T12:47:22;24.50;97.10
5924;DHT22;2987;50.884;14.818;2022-07-06T12:50:04;25.00;97.90
5924;DHT22;2987;50.884;14.818;2022-07-06T12:52:31;25.30;98.00
5924;DHT22;2987;50.884;14.818;2022-07-06T12:55:00;25.40;94.90
5924;DHT22;2987;50.884;14.818;2022-07-06T12:57:27;25.10;94.10
5924;DHT22;2987;50.884;14.818;2022-07-06T13:00:08;24.80;94.70
5924;DHT22;2987;50.884;14.818;2022-07-06T13:02:35;24.40;96.40
5924;DHT22;2987;50.884;14.818;2022-07-06T13:05:06;24.20;94.60
5924;DHT22;2987;50.884;14.818;2022-07-06T13:07:34;23.70;96.00
5924;DHT22;2987;50.884;14.818;2022-07-06T13:10:04;23.70;96.40
5924;DHT22;2987;50.884;14.818;2022-07-06T13:12:30;23.50;95.70
5924;DHT22;2987;50.884;14.818;2022-07-06T13:14:57;23.50;97.10
5924;DHT22;2987;50.884;14.818;2022-07-06T13:17:23;23.50;96.40
5924;DHT22;2987;50.884;14.818;2022-07-06T13:19:50;23.70;95.40
5924;DHT22;2987;50.884;14.818;2022-07-06T13:22:16;24.00;98.00
5924;DHT22;2987;50.884;14.818;2022-07-06T13:24:43;24.40;94.30
5924;DHT22;2987;50.884;14.818;2022-07-06T13:27:10;24.50;94.80
5924;DHT22;2987;50.884;14.818;2022-07-06T13:29:37;24.50;93.80
5924;DHT22;2987;50.884;14.818;2022-07-06T13:32:04;24.30;93.10
5924;DHT22;2987;50.884;14.818;2022-07-06T13:34:31;24.00;93.00
5924;DHT22;2987;50.884;14.818;2022-07-06T13:36:57;23.60;93.90
5924;DHT22;2987;50.884;14.818;2022-07-06T13:39:23;23.40;93.90
5924;DHT22;2987;50.884;14.818;2022-07-06T13:41:50;23.50;96.00
5924;DHT22;2987;50.884;14.818;2022-07-06T13:44:16;23.90;96.20
5924;DHT22;2987;50.884;14.818;2022-07-06T13:46:43;24.10;94.30
5924;DHT22;2987;50.884;14.818;2022-07-06T13:49:09;24.30;94.50
5924;DHT22;2987;50.884;14.818;2022-07-06T13:51:35;24.40;93.00
5924;DHT22;2987;50.884;14.818;2022-07-06T13:54:02;24.70;93.30
5924;DHT22;2987;50.884;14.818;2022-07-06T13:56:28;24.40;92.10
5924;DHT22;2987;50.884;14.818;2022-07-06T13:58:55;24.40;93.50
5924;DHT22;2987;50.884;14.818;2022-07-06T14:01:23;24.60;96.00
5924;DHT22;2987;50.884;14.818;2022-07-06T14:03:50;24.60;92.70
5924;DHT22;2987;50.884;14.818;2022-07-06T14:06:17;24.50;93.20
5924;DHT22;2987;50.884;14.818;2022-07-06T14:08:43;24.10;92.60
5924;DHT22;2987;50.884;14.818;2022-07-06T14:11:09;23.80;94.80
5924;DHT22;2987;50.884;14.818;2022-07-06T14:13:37;23.70;91.80
5924;DHT22;2987;50.884;14.818;2022-07-06T14:16:04;23.60;93.10
5924;DHT22;2987;50.884;14.818;2022-07-06T14:18:32;23.90;94.40
5924;DHT22;2987;50.884;14.818;2022-07-06T14:20:58;24.20;94.30
5924;DHT22;2987;50.884;14.818;2022-07-06T14:23:26;24.40;92.20
5924;DHT22;2987;50.884;14.818;2022-07-06T14:25:56;24.60;91.40
5924;DHT22;2987;50.884;14.818;2022-07-06T14:28:22;24.70;90.70
5924;DHT22;2987;50.884;14.818;2022-07-06T14:30:49;24.60;91.20
5924;DHT22;2987;50.884;14.818;2022-07-06T14:33:15;24.70;92.10
5924;DHT22;2987;50.884;14.818;2022-07-06T14:35:45;24.80;93.20
5924;DHT22;2987;50.884;14.818;2022-07-06T14:38:14;24.70;91.60
5924;DHT22;2987;50.884;14.818;2022-07-06T14:40:41;24.80;92.50
5924;DHT22;2987;50.884;14.818;2022-07-06T14:43:08;24.90;91.60
5924;DHT22;2987;50.884;14.818;2022-07-06T14:45:36;24.90;92.40
5924;DHT22;2987;50.884;14.818;2022-07-06T14:48:03;24.90;90.60
5924;DHT22;2987;50.884;14.818;2022-07-06T14:50:31;24.80;89.30
5924;DHT22;2987;50.884;14.818;2022-07-06T14:52:57;24.50;91.20
5924;DHT22;2987;50.884;14.818;2022-07-06T14:55:23;24.30;91.00
5924;DHT22;2987;50.884;14.818;2022-07-06T14:57:50;24.10;91.70
5924;DHT22;2987;50.884;14.818;2022-07-06T15:00:17;24.10;89.70
5924;DHT22;2987;50.884;14.818;2022-07-06T15:02:43;23.90;90.60
5924;DHT22;2987;50.884;14.818;2022-07-06T15:05:10;24.00;90.20
5924;DHT22;2987;50.884;14.818;2022-07-06T15:07:37;24.00;90.30
5924;DHT22;2987;50.884;14.818;2022-07-06T15:10:04;23.90;90.10
5924;DHT22;2987;50.884;14.818;2022-07-06T15:12:31;23.70;88.60
5924;DHT22;2987;50.884;14.818;2022-07-06T15:14:58;23.50;89.60
5924;DHT22;2987;50.884;14.818;2022-07-06T15:17:24;23.40;90.30
5924;DHT22;2987;50.884;14.818;2022-07-06T15:19:50;23.30;90.90
5924;DHT22;2987;50.884;14.818;2022-07-06T15:22:16;23.30;88.60
5924;DHT22;2987;50.884;14.818;2022-07-06T15:24:42;23.30;89.70
5924;DHT22;2987;50.884;14.818;2022-07-06T15:27:09;23.40;90.50
5924;DHT22;2987;50.884;14.818;2022-07-06T15:29:35;23.50;90.60
5924;DHT22;2987;50.884;14.818;2022-07-06T15:32:01;23.50;87.30
5924;DHT22;2987;50.884;14.818;2022-07-06T15:34:28;23.40;91.20
5924;DHT22;2987;50.884;14.818;2022-07-06T15:36:57;23.40;90.70
5924;DHT22;2987;50.884;14.818;2022-07-06T15:39:23;23.30;90.00
5924;DHT22;2987;50.884;14.818;2022-07-06T15:41:49;23.20;90.30
5924;DHT22;2987;50.884;14.818;2022-07-06T15:44:15;23.00;90.00
5924;DHT22;2987;50.884;14.818;2022-07-06T15:46:41;22.80;88.60
5924;DHT22;2987;50.884;14.818;2022-07-06T15:49:07;22.70;89.20
5924;DHT22;2987;50.884;14.818;2022-07-06T15:51:33;22.60;90.00
5924;DHT22;2987;50.884;14.818;2022-07-06T15:54:01;22.50;90.30